createdAt,value
2023-02-18T00:01:39.489Z,11.90
2023-02-18T00:04:07.137Z,11.90
2023-02-18T00:06:36.480Z,11.90
2023-02-18T00:09:06.205Z,11.90
2023-02-18T00:11:36.402Z,11.90
2023-02-18T00:14:07.666Z,11.90
2023-02-18T00:16:35.197Z,11.90
2023-02-18T00:19:05.989Z,11.90
2023-02-18T00:21:35.832Z,11.90
2023-02-18T00:24:08.674Z,11.90
2023-02-18T00:26:36.622Z,11.90
2023-02-18T00:29:04.614Z,11.90
2023-02-18T00:31:36.577Z,11.90
2023-02-18T00:34:05.685Z,11.90
2023-02-18T00:36:35.258Z,12.00
2023-02-18T00:39:09.367Z,12.00
2023-02-18T00:41:37.823Z,12.00
2023-02-18T00:44:06.266Z,12.00
2023-02-18T00:46:35.725Z,12.00
2023-02-18T00:49:04.763Z,12.10
2023-02-18T00:51:32.811Z,12.10
2023-02-18T00:54:00.607Z,12.10
2023-02-18T00:56:28.232Z,12.10
2023-02-18T00:58:55.861Z,12.10
2023-02-18T01:01:24.205Z,12.10
2023-02-18T01:03:51.794Z,12.10
2023-02-18T01:06:19.773Z,12.10
2023-02-18T01:08:49.718Z,12.10
2023-02-18T01:11:17.650Z,12.10
2023-02-18T01:13:46.693Z,12.00
2023-02-18T01:16:14.377Z,12.00
2023-02-18T01:18:41.931Z,12.00
2023-02-18T01:21:10.176Z,12.00
2023-02-18T01:23:40.326Z,12.00
2023-02-18T01:26:10.022Z,12.00
2023-02-18T01:28:40.959Z,12.00
2023-02-18T01:31:12.629Z,12.00
2023-02-18T01:33:41.118Z,12.10
2023-02-18T01:36:10.895Z,12.10
2023-02-18T01:38:38.746Z,12.00
2023-02-18T01:41:06.657Z,12.00
2023-02-18T01:43:34.778Z,12.00
2023-02-18T01:46:22.234Z,12.00
2023-02-18T01:48:57.469Z,12.00
2023-02-18T01:51:34.222Z,12.00
2023-02-18T01:54:18.485Z,12.10
2023-02-18T01:57:01.684Z,12.10
2023-02-18T01:59:39.456Z,12.00
2023-02-18T02:02:13.104Z,12.00
2023-02-18T02:04:41.552Z,12.00
2023-02-18T02:07:10.652Z,12.00
2023-02-18T02:09:40.353Z,12.00
2023-02-18T02:12:33.466Z,12.00
2023-02-18T02:15:09.797Z,12.10
2023-02-18T02:18:09.433Z,12.00
2023-02-18T02:21:11.805Z,12.00
2023-02-18T02:24:01.741Z,12.00
2023-02-18T02:27:01.307Z,12.00
2023-02-18T02:29:51.252Z,12.00
2023-02-18T02:32:35.750Z,12.10
2023-02-18T02:35:24.933Z,12.00
2023-02-18T02:38:14.741Z,12.00
2023-02-18T02:40:56.861Z,12.00
2023-02-18T02:44:10.681Z,12.10
2023-02-18T02:46:45.961Z,12.00
2023-02-18T02:49:37.771Z,12.10
2023-02-18T02:52:33.162Z,12.10
2023-02-18T02:55:03.544Z,12.10
2023-02-18T02:57:30.989Z,12.00
2023-02-18T03:00:10.463Z,12.00
2023-02-18T03:03:12.686Z,12.00
2023-02-18T03:06:27.272Z,12.10
2023-02-18T03:09:09.507Z,12.00
2023-02-18T03:11:52.367Z,12.00
2023-02-18T03:14:36.230Z,12.10
2023-02-18T03:17:15.373Z,12.10
2023-02-18T03:19:52.670Z,12.10
2023-02-18T03:22:37.843Z,12.10
2023-02-18T03:25:07.464Z,12.10
2023-02-18T03:27:53.334Z,12.10
2023-02-18T03:30:36.984Z,12.10
2023-02-18T03:33:09.597Z,12.10
2023-02-18T03:35:39.218Z,12.10
2023-02-18T03:38:31.806Z,12.10
2023-02-18T03:40:59.596Z,12.10
2023-02-18T03:43:27.174Z,12.10
2023-02-18T03:45:54.949Z,12.10
2023-02-18T03:48:23.012Z,12.10
2023-02-18T03:50:53.214Z,12.10
2023-02-18T03:53:20.853Z,12.10
2023-02-18T03:55:48.550Z,12.10
2023-02-18T03:58:16.137Z,12.10
2023-02-18T04:00:43.655Z,12.10
2023-02-18T04:03:11.221Z,12.10
2023-02-18T04:05:38.765Z,12.10
2023-02-18T04:08:06.328Z,12.20
2023-02-18T04:10:33.967Z,12.20
2023-02-18T04:13:01.636Z,12.20
2023-02-18T04:15:29.446Z,12.20
2023-02-18T04:17:57.054Z,12.30
2023-02-18T04:20:24.604Z,12.30
2023-02-18T04:22:52.150Z,12.30
2023-02-18T04:25:19.712Z,12.20
2023-02-18T04:27:47.394Z,12.10
2023-02-18T04:30:16.778Z,12.20
2023-02-18T04:32:46.053Z,12.30
2023-02-18T04:35:14.065Z,12.30
2023-02-18T04:37:41.739Z,12.30
2023-02-18T04:40:09.784Z,12.30
2023-02-18T04:42:37.383Z,12.30
2023-02-18T04:45:05.372Z,12.40
2023-02-18T04:47:32.969Z,12.30
2023-02-18T04:50:00.556Z,12.30
2023-02-18T04:52:28.180Z,12.30
2023-02-18T04:54:55.729Z,12.20
2023-02-18T04:57:23.328Z,12.20
2023-02-18T04:59:50.865Z,12.10
2023-02-18T05:02:18.468Z,12.20
2023-02-18T05:04:46.034Z,12.20
2023-02-18T05:07:13.716Z,12.20
2023-02-18T05:09:41.221Z,12.20
2023-02-18T05:12:09.048Z,12.20
2023-02-18T05:14:36.551Z,12.20
2023-02-18T05:17:04.119Z,12.20
2023-02-18T05:19:31.621Z,12.20
2023-02-18T05:21:59.159Z,12.20
2023-02-18T05:24:26.682Z,12.10
2023-02-18T05:26:54.251Z,12.10
2023-02-18T05:29:21.804Z,12.10
2023-02-18T05:31:49.525Z,12.10
2023-02-18T05:34:17.311Z,12.20
2023-02-18T05:36:44.837Z,12.10
2023-02-18T05:39:12.381Z,12.10
2023-02-18T05:41:39.956Z,12.20
2023-02-18T05:44:25.861Z,12.20
2023-02-18T05:46:53.421Z,12.20
2023-02-18T05:49:21.245Z,12.20
2023-02-18T05:51:48.852Z,12.20
2023-02-18T05:54:16.559Z,12.10
2023-02-18T05:56:44.132Z,12.20
2023-02-18T05:59:11.782Z,12.20
2023-02-18T06:01:39.318Z,12.30
2023-02-18T06:04:06.996Z,12.30
2023-02-18T06:06:35.807Z,12.30
2023-02-18T06:09:04.697Z,12.30
2023-02-18T06:11:32.837Z,12.30
2023-02-18T06:14:00.773Z,12.30
2023-02-18T06:16:28.857Z,12.40
2023-02-18T06:18:56.892Z,12.40
2023-02-18T06:21:24.739Z,12.40
2023-02-18T06:23:52.425Z,12.40
2023-02-18T06:26:20.041Z,12.40
2023-02-18T06:28:47.681Z,12.40
2023-02-18T06:31:15.359Z,12.40
2023-02-18T06:33:42.949Z,12.50
2023-02-18T06:36:13.105Z,12.50
2023-02-18T06:38:43.441Z,12.50
2023-02-18T06:41:12.375Z,12.50
2023-02-18T06:43:40.444Z,12.60
2023-02-18T06:46:08.674Z,12.60
2023-02-18T06:48:36.429Z,12.50
2023-02-18T06:51:04.442Z,12.50
2023-02-18T06:53:31.943Z,12.60
2023-02-18T06:55:59.449Z,12.60
2023-02-18T06:58:27.715Z,12.60
2023-02-18T07:00:55.259Z,12.60
2023-02-18T07:03:22.909Z,12.60
2023-02-18T07:05:50.442Z,12.60
2023-02-18T07:08:18.635Z,12.60
2023-02-18T07:10:46.871Z,12.70
2023-02-18T07:13:14.722Z,12.70
2023-02-18T07:15:42.236Z,12.70
2023-02-18T07:18:09.805Z,12.70
2023-02-18T07:20:37.317Z,12.70
2023-02-18T07:23:04.854Z,12.70
2023-02-18T07:25:32.354Z,12.70
2023-02-18T07:27:59.876Z,12.70
2023-02-18T07:30:27.455Z,12.70
2023-02-18T07:32:54.984Z,12.70
2023-02-18T07:35:22.637Z,12.70
2023-02-18T07:37:51.068Z,12.70
2023-02-18T07:40:21.608Z,12.80
2023-02-18T07:42:49.606Z,12.80
2023-02-18T07:45:17.321Z,12.80
2023-02-18T07:47:45.543Z,12.90
2023-02-18T07:50:13.095Z,12.90
2023-02-18T07:52:40.736Z,12.90
2023-02-18T07:55:09.032Z,13.00
2023-02-18T07:57:56.548Z,13.00
2023-02-18T08:00:24.363Z,13.00
2023-02-18T08:02:51.942Z,12.90
2023-02-18T08:05:19.555Z,12.90
2023-02-18T08:07:47.097Z,12.90
2023-02-18T08:10:14.591Z,12.90
2023-02-18T08:12:42.103Z,12.90
2023-02-18T08:15:09.901Z,12.90
2023-02-18T08:17:37.443Z,12.90
2023-02-18T08:20:06.234Z,13.00
2023-02-18T08:22:33.744Z,13.00
2023-02-18T08:25:01.260Z,12.90
2023-02-18T08:27:28.806Z,12.90
2023-02-18T08:29:56.322Z,13.00
2023-02-18T08:32:28.710Z,13.00
2023-02-18T08:34:56.832Z,13.00
2023-02-18T08:37:24.518Z,13.00
2023-02-18T08:39:52.264Z,13.00
2023-02-18T08:42:19.793Z,13.10
2023-02-18T08:44:47.405Z,13.10
2023-02-18T08:48:18.330Z,13.10
2023-02-18T08:50:02.456Z,13.20
2023-02-18T08:52:30.028Z,13.20
2023-02-18T08:54:57.597Z,13.30
2023-02-18T08:57:25.118Z,13.40
2023-02-18T08:59:52.662Z,13.40
2023-02-18T09:02:20.248Z,13.30
2023-02-18T09:04:47.788Z,13.50
2023-02-18T09:07:15.289Z,13.40
2023-02-18T09:09:42.814Z,13.40
2023-02-18T09:12:10.382Z,13.50
2023-02-18T09:14:37.911Z,13.50
2023-02-18T09:17:05.442Z,13.50
2023-02-18T09:19:32.941Z,13.40
2023-02-18T09:22:00.848Z,13.50
2023-02-18T09:24:28.500Z,13.50
2023-02-18T09:26:56.033Z,13.50
2023-02-18T09:29:23.579Z,13.50
2023-02-18T09:31:51.207Z,13.50
2023-02-18T09:34:18.830Z,13.50
2023-02-18T09:36:46.336Z,13.50
2023-02-18T09:39:13.948Z,13.50
2023-02-18T09:41:51.405Z,13.50
2023-02-18T09:44:21.789Z,13.50
2023-02-18T09:47:05.330Z,13.50
2023-02-18T09:49:38.144Z,13.60
2023-02-18T09:52:33.341Z,13.70
2023-02-18T09:55:21.354Z,13.60
2023-02-18T09:58:00.958Z,13.60
2023-02-18T10:00:46.137Z,13.50
2023-02-18T10:03:21.657Z,13.50
2023-02-18T10:06:10.518Z,13.50
2023-02-18T10:08:42.712Z,13.60
2023-02-18T10:11:36.744Z,13.60
2023-02-18T10:14:10.924Z,13.50
2023-02-18T10:16:38.504Z,13.50
2023-02-18T10:19:37.492Z,13.50
2023-02-18T10:22:08.685Z,13.40
2023-02-18T10:24:52.275Z,13.40
2023-02-18T10:27:37.129Z,13.40
2023-02-18T10:30:34.402Z,13.50
2023-02-18T10:33:33.391Z,13.50
2023-02-18T10:36:24.615Z,13.40
2023-02-18T10:39:38.552Z,13.50
2023-02-18T10:42:38.937Z,13.50
2023-02-18T10:45:40.162Z,13.50
2023-02-18T10:48:50.656Z,13.50
2023-02-18T10:51:24.415Z,13.60
2023-02-18T10:53:53.490Z,13.60
2023-02-18T10:56:42.087Z,13.60
2023-02-18T10:59:33.432Z,13.70
2023-02-18T11:02:18.424Z,13.60
2023-02-18T11:04:46.631Z,13.70
2023-02-18T11:07:23.171Z,13.70
2023-02-18T11:09:56.007Z,13.70
2023-02-18T11:12:28.958Z,13.80
2023-02-18T11:15:14.515Z,13.80
2023-02-18T11:17:45.351Z,13.80
2023-02-18T11:20:36.352Z,13.80
2023-02-18T11:23:06.730Z,13.70
2023-02-18T11:25:40.611Z,13.70
2023-02-18T11:28:44.140Z,13.70
2023-02-18T11:31:31.164Z,13.80
2023-02-18T11:34:03.037Z,13.70
2023-02-18T11:36:35.046Z,13.60
2023-02-18T11:39:26.444Z,13.60
2023-02-18T11:42:14.029Z,13.60
2023-02-18T11:44:56.433Z,13.60
2023-02-18T11:47:27.995Z,13.60
2023-02-18T11:50:20.760Z,13.60
2023-02-18T11:52:51.049Z,13.60
2023-02-18T11:55:23.018Z,13.60
2023-02-18T11:58:03.796Z,13.50
2023-02-18T12:00:51.724Z,13.50
2023-02-18T12:03:49.936Z,13.60
2023-02-18T12:06:44.468Z,13.60
2023-02-18T12:09:35.084Z,13.60
2023-02-18T12:12:33.397Z,13.60
2023-02-18T12:15:01.192Z,13.50
2023-02-18T12:18:01.656Z,13.50
2023-02-18T12:20:59.431Z,13.50
2023-02-18T12:24:04.234Z,13.50
2023-02-18T12:27:04.830Z,13.40
2023-02-18T12:29:54.430Z,13.40
2023-02-18T12:32:53.899Z,13.40
2023-02-18T12:36:00.098Z,13.40
2023-02-18T12:39:01.481Z,13.40
2023-02-18T12:42:05.983Z,13.30
2023-02-18T12:45:14.934Z,13.20
2023-02-18T12:48:19.952Z,13.20
2023-02-18T12:51:56.382Z,13.20
2023-02-18T12:54:49.054Z,13.30
2023-02-18T12:57:48.011Z,13.30
2023-02-18T13:00:31.129Z,13.30
2023-02-18T13:03:50.883Z,13.30
2023-02-18T13:06:48.796Z,13.30
2023-02-18T13:09:43.025Z,13.30
2023-02-18T13:12:38.813Z,13.40
2023-02-18T13:15:37.026Z,13.40
2023-02-18T13:18:14.730Z,13.40
2023-02-18T13:21:00.921Z,13.30
2023-02-18T13:23:35.701Z,13.20
2023-02-18T13:26:09.728Z,13.20
2023-02-18T13:29:00.737Z,13.30
2023-02-18T13:32:00.653Z,13.30
2023-02-18T13:34:46.118Z,13.20
2023-02-18T13:37:27.349Z,13.20
2023-02-18T13:39:58.114Z,13.20
2023-02-18T13:42:31.615Z,13.30
2023-02-18T13:44:59.092Z,13.40
2023-02-18T13:47:45.913Z,13.30
2023-02-18T13:50:26.481Z,13.30
2023-02-18T13:53:09.276Z,13.30
2023-02-18T13:56:05.485Z,13.30
2023-02-18T13:58:42.758Z,13.40
2023-02-18T14:01:13.143Z,13.40
2023-02-18T14:03:43.354Z,13.60
2023-02-18T14:06:28.682Z,13.60
2023-02-18T14:09:25.036Z,13.50
2023-02-18T14:12:26.529Z,13.70
2023-02-18T14:14:54.074Z,13.70
2023-02-18T14:17:21.466Z,13.60
2023-02-18T14:20:00.901Z,13.60
2023-02-18T14:22:39.442Z,13.50
2023-02-18T14:25:09.815Z,13.60
2023-02-18T14:27:38.911Z,13.70
2023-02-18T14:30:24.527Z,13.80
2023-02-18T14:32:57.199Z,13.90
2023-02-18T14:36:15.024Z,14.00
2023-02-18T14:39:35.972Z,14.00
2023-02-18T14:42:30.133Z,14.00
2023-02-18T14:45:31.121Z,14.10
2023-02-18T14:48:47.568Z,14.10
2023-02-18T14:51:19.789Z,14.10
2023-02-18T14:53:48.444Z,14.00
2023-02-18T14:56:21.045Z,13.90
2023-02-18T14:59:02.351Z,14.00
2023-02-18T15:01:31.340Z,14.00
2023-02-18T15:04:00.317Z,13.90
2023-02-18T15:06:38.305Z,13.80
2023-02-18T15:09:22.421Z,13.70
2023-02-18T15:11:57.780Z,13.70
2023-02-18T15:14:30.666Z,13.70
2023-02-18T15:16:59.491Z,13.70
2023-02-18T15:19:36.333Z,13.60
2023-02-18T15:22:03.886Z,13.60
2023-02-18T15:24:37.956Z,13.50
2023-02-18T15:27:24.807Z,13.40
2023-02-18T15:30:12.870Z,13.60
2023-02-18T15:32:40.594Z,13.60
2023-02-18T15:35:18.371Z,13.50
2023-02-18T15:37:52.741Z,13.50
2023-02-18T15:40:23.487Z,13.50
2023-02-18T15:42:56.072Z,13.50
2023-02-18T15:45:46.936Z,13.40
2023-02-18T15:48:48.416Z,13.50
2023-02-18T15:51:23.319Z,13.60
2023-02-18T15:53:54.952Z,13.40
2023-02-18T15:56:38.522Z,13.20
2023-02-18T15:59:35.644Z,13.20
2023-02-18T16:02:18.595Z,13.20
2023-02-18T16:04:57.771Z,13.20
2023-02-18T16:07:30.609Z,13.20
2023-02-18T16:10:20.394Z,13.10
2023-02-18T16:12:54.781Z,13.10
2023-02-18T16:15:28.681Z,13.10
2023-02-18T16:17:58.834Z,13.20
2023-02-18T16:20:37.921Z,13.20
2023-02-18T16:23:14.778Z,13.30
2023-02-18T16:25:47.005Z,13.30
2023-02-18T16:28:27.762Z,13.20
2023-02-18T16:30:55.417Z,13.10
2023-02-18T16:33:22.938Z,13.00
2023-02-18T16:35:51.159Z,13.00
2023-02-18T16:38:22.485Z,13.00
2023-02-18T16:40:52.186Z,12.90
2023-02-18T16:43:26.932Z,12.90
2023-02-18T16:45:58.855Z,12.90
2023-02-18T16:48:41.419Z,12.80
2023-02-18T16:51:34.490Z,12.70
2023-02-18T16:54:02.031Z,12.70
2023-02-18T16:56:35.328Z,12.60
2023-02-18T16:59:03.005Z,12.50
2023-02-18T17:01:42.576Z,12.50
2023-02-18T17:04:17.167Z,12.50
2023-02-18T17:06:48.441Z,12.40
2023-02-18T17:09:20.570Z,12.40
2023-02-18T17:11:54.664Z,12.40
2023-02-18T17:14:23.462Z,12.30
2023-02-18T17:16:54.269Z,12.30
2023-02-18T17:19:21.862Z,12.20
2023-02-18T17:21:49.430Z,12.10
2023-02-18T17:24:18.662Z,12.00
2023-02-18T17:26:46.294Z,12.00
2023-02-18T17:29:13.903Z,12.00
2023-02-18T17:31:46.863Z,12.10
2023-02-18T17:34:24.522Z,12.10
2023-02-18T17:36:52.178Z,12.00
2023-02-18T17:39:20.724Z,12.10
2023-02-18T17:41:48.401Z,12.00
2023-02-18T17:44:22.019Z,12.00
2023-02-18T17:46:50.017Z,11.90
2023-02-18T17:49:17.617Z,12.00
2023-02-18T17:51:45.145Z,12.00
2023-02-18T17:54:16.298Z,12.00
2023-02-18T17:56:44.727Z,12.00
2023-02-18T17:59:12.631Z,12.00
2023-02-18T18:01:40.379Z,11.80
2023-02-18T18:04:19.244Z,11.80
2023-02-18T18:06:47.298Z,11.80
2023-02-18T18:09:14.817Z,11.70
2023-02-18T18:11:42.701Z,11.70
2023-02-18T18:14:13.514Z,11.70
2023-02-18T18:16:41.055Z,11.60
2023-02-18T18:19:08.550Z,11.50
2023-02-18T18:21:36.723Z,11.60
2023-02-18T18:24:04.575Z,11.50
2023-02-18T18:26:32.199Z,11.50
2023-02-18T18:28:59.733Z,11.60
2023-02-18T18:31:27.445Z,11.50
2023-02-18T18:33:55.102Z,11.40
2023-02-18T18:36:24.269Z,11.30
2023-02-18T18:38:52.422Z,11.30
2023-02-18T18:41:22.485Z,11.30
2023-02-18T18:43:50.182Z,11.30
2023-02-18T18:46:18.507Z,11.40
2023-02-18T18:48:46.382Z,11.40
2023-02-18T18:51:21.441Z,11.30
2023-02-18T18:53:48.979Z,11.20
2023-02-18T18:56:16.508Z,11.20
2023-02-18T18:58:44.030Z,11.20
2023-02-18T19:01:18.737Z,11.10
2023-02-18T19:03:47.041Z,11.10
2023-02-18T19:06:16.738Z,11.10
2023-02-18T19:08:45.539Z,11.10
2023-02-18T19:11:14.203Z,11.00
2023-02-18T19:13:42.476Z,11.10
2023-02-18T19:16:20.099Z,11.00
2023-02-18T19:18:48.914Z,10.90
2023-02-18T19:21:16.912Z,10.90
2023-02-18T19:23:44.503Z,10.80
2023-02-18T19:26:14.493Z,10.60
2023-02-18T19:28:43.061Z,10.40
2023-02-18T19:31:11.302Z,10.40
2023-02-18T19:33:39.689Z,10.30
2023-02-18T19:36:09.547Z,10.30
2023-02-18T19:38:37.637Z,10.30
2023-02-18T19:41:12.798Z,10.30
2023-02-18T19:43:44.637Z,10.30
2023-02-18T19:46:18.178Z,10.30
2023-02-18T19:48:52.599Z,10.20
2023-02-18T19:51:21.575Z,10.10
2023-02-18T19:53:49.283Z,10.20
2023-02-18T19:56:16.890Z,10.30
2023-02-18T19:58:44.423Z,10.30
2023-02-18T20:01:14.998Z,10.30
2023-02-18T20:03:43.603Z,10.30
2023-02-18T20:06:19.429Z,10.30
2023-02-18T20:08:47.668Z,10.30
2023-02-18T20:11:15.408Z,10.30
2023-02-18T20:13:43.081Z,10.20
2023-02-18T20:16:11.624Z,10.30
2023-02-18T20:18:39.422Z,10.30
2023-02-18T20:21:10.719Z,10.30
2023-02-18T20:23:38.461Z,10.30
2023-02-18T20:26:11.067Z,10.30
2023-02-18T20:28:38.887Z,10.30
2023-02-18T20:31:09.731Z,10.30
2023-02-18T20:33:38.276Z,10.30
2023-02-18T20:36:08.345Z,10.30
2023-02-18T20:38:37.340Z,10.20
2023-02-18T20:41:11.893Z,10.20
2023-02-18T20:43:40.456Z,10.30
2023-02-18T20:46:12.545Z,10.20
2023-02-18T20:48:40.143Z,10.20
2023-02-18T20:51:13.810Z,10.20
2023-02-18T20:53:43.010Z,10.20
2023-02-18T20:56:10.875Z,10.20
2023-02-18T20:58:39.028Z,10.30
2023-02-18T21:01:13.926Z,10.30
2023-02-18T21:03:42.649Z,10.20
2023-02-18T21:06:13.904Z,10.10
2023-02-18T21:08:43.400Z,10.00
2023-02-18T21:11:24.889Z,10.00
2023-02-18T21:13:55.144Z,10.00
2023-02-18T21:16:25.178Z,10.00
2023-02-18T21:18:53.045Z,9.90
2023-02-18T21:21:22.828Z,10.00
2023-02-18T21:24:31.974Z,10.00
2023-02-18T21:26:59.533Z,9.80
2023-02-18T21:29:27.269Z,9.80
2023-02-18T21:31:54.964Z,9.80
2023-02-18T21:34:22.788Z,9.90
2023-02-18T21:36:50.360Z,9.90
2023-02-18T21:39:17.868Z,10.00
2023-02-18T21:41:45.385Z,10.00
2023-02-18T21:44:12.916Z,10.00
2023-02-18T21:46:40.542Z,9.80
2023-02-18T21:49:12.284Z,9.80
2023-02-18T21:51:57.937Z,9.90
2023-02-18T21:54:40.884Z,9.80
2023-02-18T21:57:15.367Z,9.90
2023-02-18T21:59:43.550Z,9.90
2023-02-18T22:02:31.553Z,9.80
2023-02-18T22:05:02.174Z,9.90
2023-02-18T22:07:30.059Z,9.90
2023-02-18T22:09:57.631Z,9.80
2023-02-18T22:12:28.265Z,9.80
2023-02-18T22:14:55.817Z,9.80
2023-02-18T22:17:23.326Z,9.70
2023-02-18T22:19:50.843Z,9.80
2023-02-18T22:22:18.412Z,9.80
2023-02-18T22:24:45.917Z,9.90
2023-02-18T22:27:13.417Z,9.80
2023-02-18T22:29:41.109Z,9.80
2023-02-18T22:32:08.707Z,9.80
2023-02-18T22:34:36.361Z,9.90
2023-02-18T22:37:03.943Z,9.90
2023-02-18T22:39:31.817Z,10.00
2023-02-18T22:41:59.356Z,10.00
2023-02-18T22:44:27.336Z,10.10
2023-02-18T22:46:57.017Z,10.10
2023-02-18T22:49:25.424Z,10.10
2023-02-18T22:51:54.318Z,10.10
2023-02-18T22:54:21.875Z,10.00
2023-02-18T22:56:49.713Z,9.90
2023-02-18T22:59:19.969Z,9.90
2023-02-18T23:01:49.496Z,9.90
2023-02-18T23:04:19.706Z,9.90
2023-02-18T23:06:48.709Z,9.90
2023-02-18T23:09:23.688Z,9.90
2023-02-18T23:11:58.086Z,9.90
2023-02-18T23:14:28.038Z,9.90
2023-02-18T23:17:14.188Z,10.00
2023-02-18T23:19:51.142Z,10.00
2023-02-18T23:22:39.986Z,10.00
2023-02-18T23:25:08.163Z,10.10
2023-02-18T23:27:35.700Z,10.10
2023-02-18T23:30:03.550Z,10.10
2023-02-18T23:32:31.969Z,10.10
2023-02-18T23:34:59.485Z,10.10
2023-02-18T23:37:45.314Z,10.00
2023-02-18T23:40:14.644Z,10.00
2023-02-18T23:42:42.157Z,10.00
2023-02-18T23:45:09.744Z,10.00
2023-02-18T23:47:37.294Z,10.00
2023-02-18T23:50:05.266Z,10.00
2023-02-18T23:52:33.877Z,10.00
2023-02-18T23:55:01.619Z,10.00
2023-02-18T23:57:32.839Z,10.00
